sensor_id;sensor_type;location;lat;lon;timestamp;temperature;humidity
70089;HTU21D;57460;47.134;19.888;2023-04-15T00:00:13;9.86;73.07
70089;HTU21D;57460;47.134;19.888;2023-04-15T00:02:40;9.86;72.97
70089;HTU21D;57460;47.134;19.888;2023-04-15T00:05:06;9.88;73.05
70089;HTU21D;57460;47.134;19.888;2023-04-15T00:07:32;9.78;74.23
70089;HTU21D;57460;47.134;19.888;2023-04-15T00:09:59;9.76;73.41
70089;HTU21D;57460;47.134;19.888;2023-04-15T00:12:25;9.70;73.73
70089;HTU21D;57460;47.134;19.888;2023-04-15T00:14:51;9.70;73.70
70089;HTU21D;57460;47.134;19.888;2023-04-15T00:17:17;9.71;73.74
70089;HTU21D;57460;47.134;19.888;2023-04-15T00:19:43;9.71;74.13
70089;HTU21D;57460;47.134;19.888;2023-04-15T00:22:10;9.69;73.80
70089;HTU21D;57460;47.134;19.888;2023-04-15T00:24:37;9.70;73.72
70089;HTU21D;57460;47.134;19.888;2023-04-15T00:27:03;9.74;73.44
70089;HTU21D;57460;47.134;19.888;2023-04-15T00:29:29;9.74;74.92
70089;HTU21D;57460;47.134;19.888;2023-04-15T00:31:55;9.69;75.77
70089;HTU21D;57460;47.134;19.888;2023-04-15T00:34:25;9.62;74.60
70089;HTU21D;57460;47.134;19.888;2023-04-15T00:36:52;9.62;74.06
70089;HTU21D;57460;47.134;19.888;2023-04-15T00:39:18;9.55;76.31
70089;HTU21D;57460;47.134;19.888;2023-04-15T00:41:44;9.53;75.74
70089;HTU21D;57460;47.134;19.888;2023-04-15T00:44:10;9.47;76.13
70089;HTU21D;57460;47.134;19.888;2023-04-15T00:46:37;9.42;76.28
70089;HTU21D;57460;47.134;19.888;2023-04-15T00:49:06;9.39;76.99
70089;HTU21D;57460;47.134;19.888;2023-04-15T00:51:33;9.36;76.89
70089;HTU21D;57460;47.134;19.888;2023-04-15T00:54:02;9.39;75.35
70089;HTU21D;57460;47.134;19.888;2023-04-15T00:56:28;9.38;77.25
70089;HTU21D;57460;47.134;19.888;2023-04-15T00:58:54;9.37;75.77
70089;HTU21D;57460;47.134;19.888;2023-04-15T01:01:21;9.33;77.12
70089;HTU21D;57460;47.134;19.888;2023-04-15T01:03:50;9.26;77.47
70089;HTU21D;57460;47.134;19.888;2023-04-15T01:06:17;9.23;76.74
70089;HTU21D;57460;47.134;19.888;2023-04-15T01:08:43;9.19;78.06
70089;HTU21D;57460;47.134;19.888;2023-04-15T01:11:13;9.16;78.13
70089;HTU21D;57460;47.134;19.888;2023-04-15T01:13:39;9.14;78.53
70089;HTU21D;57460;47.134;19.888;2023-04-15T01:16:06;9.10;79.12
70089;HTU21D;57460;47.134;19.888;2023-04-15T01:18:37;9.10;77.23
70089;HTU21D;57460;47.134;19.888;2023-04-15T01:21:04;9.14;77.61
70089;HTU21D;57460;47.134;19.888;2023-04-15T01:23:32;9.18;77.26
70089;HTU21D;57460;47.134;19.888;2023-04-15T01:26:02;9.19;77.89
70089;HTU21D;57460;47.134;19.888;2023-04-15T01:28:28;9.17;78.16
70089;HTU21D;57460;47.134;19.888;2023-04-15T01:31:14;9.14;78.22
70089;HTU21D;57460;47.134;19.888;2023-04-15T01:33:41;9.10;78.03
70089;HTU21D;57460;47.134;19.888;2023-04-15T01:36:08;9.14;78.50
70089;HTU21D;57460;47.134;19.888;2023-04-15T01:38:36;9.17;77.85
70089;HTU21D;57460;47.134;19.888;2023-04-15T01:41:02;9.22;77.62
70089;HTU21D;57460;47.134;19.888;2023-04-15T01:43:35;9.24;77.47
70089;HTU21D;57460;47.134;19.888;2023-04-15T01:46:01;9.23;77.63
70089;HTU21D;57460;47.134;19.888;2023-04-15T01:48:27;9.23;77.46
70089;HTU21D;57460;47.134;19.888;2023-04-15T01:50:54;9.24;77.61
70089;HTU21D;57460;47.134;19.888;2023-04-15T01:53:22;9.32;76.96
70089;HTU21D;57460;47.134;19.888;2023-04-15T01:55:48;9.34;76.75
70089;HTU21D;57460;47.134;19.888;2023-04-15T01:58:13;9.32;77.11
70089;HTU21D;57460;47.134;19.888;2023-04-15T02:00:39;9.32;77.01
70089;HTU21D;57460;47.134;19.888;2023-04-15T02:03:06;9.20;78.02
70089;HTU21D;57460;47.134;19.888;2023-04-15T02:05:31;9.12;77.40
70089;HTU21D;57460;47.134;19.888;2023-04-15T02:07:58;9.08;77.93
70089;HTU21D;57460;47.134;19.888;2023-04-15T02:10:24;9.01;78.34
70089;HTU21D;57460;47.134;19.888;2023-04-15T02:12:50;8.96;77.99
70089;HTU21D;57460;47.134;19.888;2023-04-15T02:15:15;8.94;77.55
70089;HTU21D;57460;47.134;19.888;2023-04-15T02:17:41;8.93;77.24
70089;HTU21D;57460;47.134;19.888;2023-04-15T02:20:10;8.93;76.83
70089;HTU21D;57460;47.134;19.888;2023-04-15T02:22:36;8.87;78.02
70089;HTU21D;57460;47.134;19.888;2023-04-15T02:25:02;8.83;77.02
70089;HTU21D;57460;47.134;19.888;2023-04-15T02:27:28;8.74;78.24
70089;HTU21D;57460;47.134;19.888;2023-04-15T02:29:55;8.72;77.02
70089;HTU21D;57460;47.134;19.888;2023-04-15T02:32:20;8.70;77.69
70089;HTU21D;57460;47.134;19.888;2023-04-15T02:34:48;8.65;77.97
70089;HTU21D;57460;47.134;19.888;2023-04-15T02:37:14;8.62;78.32
70089;HTU21D;57460;47.134;19.888;2023-04-15T02:39:40;8.62;78.76
70089;HTU21D;57460;47.134;19.888;2023-04-15T02:42:06;8.62;77.96
70089;HTU21D;57460;47.134;19.888;2023-04-15T02:44:32;8.65;77.27
70089;HTU21D;57460;47.134;19.888;2023-04-15T02:46:59;8.65;77.34
70089;HTU21D;57460;47.134;19.888;2023-04-15T02:49:25;8.63;78.28
70089;HTU21D;57460;47.134;19.888;2023-04-15T02:51:54;8.65;78.01
70089;HTU21D;57460;47.134;19.888;2023-04-15T02:54:21;8.71;79.24
70089;HTU21D;57460;47.134;19.888;2023-04-15T02:56:50;8.77;77.95
70089;HTU21D;57460;47.134;19.888;2023-04-15T02:59:19;8.82;77.75
70089;HTU21D;57460;47.134;19.888;2023-04-15T03:01:45;8.88;76.63
70089;HTU21D;57460;47.134;19.888;2023-04-15T03:04:11;8.91;74.60
70089;HTU21D;57460;47.134;19.888;2023-04-15T03:06:38;8.85;74.92
70089;HTU21D;57460;47.134;19.888;2023-04-15T03:09:04;8.78;75.67
70089;HTU21D;57460;47.134;19.888;2023-04-15T03:11:30;8.77;76.02
70089;HTU21D;57460;47.134;19.888;2023-04-15T03:13:56;8.72;76.79
70089;HTU21D;57460;47.134;19.888;2023-04-15T03:16:23;8.68;76.86
70089;HTU21D;57460;47.134;19.888;2023-04-15T03:18:49;8.67;75.95
70089;HTU21D;57460;47.134;19.888;2023-04-15T03:21:15;8.71;74.77
70089;HTU21D;57460;47.134;19.888;2023-04-15T03:23:41;8.64;75.49
70089;HTU21D;57460;47.134;19.888;2023-04-15T03:26:07;8.61;75.36
70089;HTU21D;57460;47.134;19.888;2023-04-15T03:28:33;8.58;75.24
70089;HTU21D;57460;47.134;19.888;2023-04-15T03:30:59;8.55;74.94
70089;HTU21D;57460;47.134;19.888;2023-04-15T03:33:25;8.51;74.79
70089;HTU21D;57460;47.134;19.888;2023-04-15T03:35:51;8.43;75.99
70089;HTU21D;57460;47.134;19.888;2023-04-15T03:38:18;8.42;74.73
70089;HTU21D;57460;47.134;19.888;2023-04-15T03:40:45;8.35;76.02
70089;HTU21D;57460;47.134;19.888;2023-04-15T03:43:11;8.41;74.89
70089;HTU21D;57460;47.134;19.888;2023-04-15T03:45:37;8.36;75.60
70089;HTU21D;57460;47.134;19.888;2023-04-15T03:48:03;8.34;75.54
70089;HTU21D;57460;47.134;19.888;2023-04-15T03:50:29;8.29;75.58
70089;HTU21D;57460;47.134;19.888;2023-04-15T03:52:54;8.21;76.21
70089;HTU21D;57460;47.134;19.888;2023-04-15T03:55:20;8.20;77.82
70089;HTU21D;57460;47.134;19.888;2023-04-15T03:57:46;8.19;77.60
70089;HTU21D;57460;47.134;19.888;2023-04-15T04:00:12;8.16;78.37
70089;HTU21D;57460;47.134;19.888;2023-04-15T04:02:38;8.15;78.38
70089;HTU21D;57460;47.134;19.888;2023-04-15T04:05:04;8.15;77.76
70089;HTU21D;57460;47.134;19.888;2023-04-15T04:07:30;8.16;78.40
70089;HTU21D;57460;47.134;19.888;2023-04-15T04:09:57;8.14;79.41
70089;HTU21D;57460;47.134;19.888;2023-04-15T04:12:22;8.14;78.30
70089;HTU21D;57460;47.134;19.888;2023-04-15T04:14:48;8.18;79.27
70089;HTU21D;57460;47.134;19.888;2023-04-15T04:17:14;8.24;77.63
70089;HTU21D;57460;47.134;19.888;2023-04-15T04:19:40;8.30;78.76
70089;HTU21D;57460;47.134;19.888;2023-04-15T04:22:05;8.33;78.58
70089;HTU21D;57460;47.134;19.888;2023-04-15T04:24:31;8.46;76.34
70089;HTU21D;57460;47.134;19.888;2023-04-15T04:26:57;8.53;78.08
70089;HTU21D;57460;47.134;19.888;2023-04-15T04:29:23;8.67;77.92
70089;HTU21D;57460;47.134;19.888;2023-04-15T04:31:49;8.72;78.65
70089;HTU21D;57460;47.134;19.888;2023-04-15T04:34:15;8.76;77.57
70089;HTU21D;57460;47.134;19.888;2023-04-15T04:36:40;8.83;76.60
70089;HTU21D;57460;47.134;19.888;2023-04-15T04:39:06;8.81;77.33
70089;HTU21D;57460;47.134;19.888;2023-04-15T04:41:32;8.78;78.27
70089;HTU21D;57460;47.134;19.888;2023-04-15T04:44:01;8.77;78.43
70089;HTU21D;57460;47.134;19.888;2023-04-15T04:46:28;8.77;77.43
70089;HTU21D;57460;47.134;19.888;2023-04-15T04:48:53;8.74;77.33
70089;HTU21D;57460;47.134;19.888;2023-04-15T04:51:19;8.76;78.37
70089;HTU21D;57460;47.134;19.888;2023-04-15T04:53:45;8.76;79.12
70089;HTU21D;57460;47.134;19.888;2023-04-15T04:56:11;8.77;78.08
70089;HTU21D;57460;47.134;19.888;2023-04-15T04:58:37;8.81;77.88
70089;HTU21D;57460;47.134;19.888;2023-04-15T05:01:03;8.82;78.79
70089;HTU21D;57460;47.134;19.888;2023-04-15T05:03:29;8.83;79.16
70089;HTU21D;57460;47.134;19.888;2023-04-15T05:05:54;8.88;78.69
70089;HTU21D;57460;47.134;19.888;2023-04-15T05:08:20;8.90;79.00
70089;HTU21D;57460;47.134;19.888;2023-04-15T05:10:46;8.94;78.73
70089;HTU21D;57460;47.134;19.888;2023-04-15T05:13:12;9.01;76.94
70089;HTU21D;57460;47.134;19.888;2023-04-15T05:15:38;9.01;78.60
70089;HTU21D;57460;47.134;19.888;2023-04-15T05:18:05;9.12;76.20
70089;HTU21D;57460;47.134;19.888;2023-04-15T05:20:31;9.12;77.44
70089;HTU21D;57460;47.134;19.888;2023-04-15T05:22:57;9.18;77.19
70089;HTU21D;57460;47.134;19.888;2023-04-15T05:25:23;9.22;78.01
70089;HTU21D;57460;47.134;19.888;2023-04-15T05:27:49;9.25;78.65
70089;HTU21D;57460;47.134;19.888;2023-04-15T05:30:15;9.29;77.90
70089;HTU21D;57460;47.134;19.888;2023-04-15T05:32:41;9.35;77.93
70089;HTU21D;57460;47.134;19.888;2023-04-15T05:35:07;9.34;78.69
70089;HTU21D;57460;47.134;19.888;2023-04-15T05:37:33;9.45;76.97
70089;HTU21D;57460;47.134;19.888;2023-04-15T05:39:58;9.44;78.87
70089;HTU21D;57460;47.134;19.888;2023-04-15T05:42:24;9.54;77.18
70089;HTU21D;57460;47.134;19.888;2023-04-15T05:44:50;9.67;77.84
70089;HTU21D;57460;47.134;19.888;2023-04-15T05:47:16;9.71;77.23
70089;HTU21D;57460;47.134;19.888;2023-04-15T05:49:42;9.77;75.99
70089;HTU21D;57460;47.134;19.888;2023-04-15T05:52:07;9.85;75.47
70089;HTU21D;57460;47.134;19.888;2023-04-15T05:54:33;9.93;75.62
70089;HTU21D;57460;47.134;19.888;2023-04-15T05:56:59;9.97;77.21
70089;HTU21D;57460;47.134;19.888;2023-04-15T05:59:25;10.05;75.80
70089;HTU21D;57460;47.134;19.888;2023-04-15T06:01:51;10.04;75.92
70089;HTU21D;57460;47.134;19.888;2023-04-15T06:04:17;10.05;75.76
70089;HTU21D;57460;47.134;19.888;2023-04-15T06:06:43;10.07;75.63
70089;HTU21D;57460;47.134;19.888;2023-04-15T06:09:09;10.22;75.32
70089;HTU21D;57460;47.134;19.888;2023-04-15T06:11:35;10.42;76.02
70089;HTU21D;57460;47.134;19.888;2023-04-15T06:14:01;10.68;75.44
70089;HTU21D;57460;47.134;19.888;2023-04-15T06:16:27;10.94;75.17
70089;HTU21D;57460;47.134;19.888;2023-04-15T06:18:53;11.16;74.41
70089;HTU21D;57460;47.134;19.888;2023-04-15T06:21:19;11.39;72.87
70089;HTU21D;57460;47.134;19.888;2023-04-15T06:23:48;11.61;72.05
70089;HTU21D;57460;47.134;19.888;2023-04-15T06:26:14;11.63;71.58
70089;HTU21D;57460;47.134;19.888;2023-04-15T06:28:40;11.58;72.70
70089;HTU21D;57460;47.134;19.888;2023-04-15T06:31:06;11.68;72.93
70089;HTU21D;57460;47.134;19.888;2023-04-15T06:33:32;11.85;71.66
70089;HTU21D;57460;47.134;19.888;2023-04-15T06:35:57;12.00;72.03
70089;HTU21D;57460;47.134;19.888;2023-04-15T06:38:24;12.13;71.35
70089;HTU21D;57460;47.134;19.888;2023-04-15T06:40:49;12.27;70.81
70089;HTU21D;57460;47.134;19.888;2023-04-15T06:43:16;12.50;70.49
70089;HTU21D;57460;47.134;19.888;2023-04-15T06:45:41;12.49;68.78
70089;HTU21D;57460;47.134;19.888;2023-04-15T06:48:07;12.59;68.52
70089;HTU21D;57460;47.134;19.888;2023-04-15T06:50:33;12.84;66.66
70089;HTU21D;57460;47.134;19.888;2023-04-15T06:53:00;12.73;68.01
70089;HTU21D;57460;47.134;19.888;2023-04-15T06:55:25;12.86;69.16
70089;HTU21D;57460;47.134;19.888;2023-04-15T06:57:51;12.94;67.72
70089;HTU21D;57460;47.134;19.888;2023-04-15T07:00:17;13.02;68.20
70089;HTU21D;57460;47.134;19.888;2023-04-15T07:02:43;13.08;67.46
70089;HTU21D;57460;47.134;19.888;2023-04-15T07:05:09;13.19;68.34
70089;HTU21D;57460;47.134;19.888;2023-04-15T07:07:35;13.38;67.41
70089;HTU21D;57460;47.134;19.888;2023-04-15T07:10:01;13.50;67.29
70089;HTU21D;57460;47.134;19.888;2023-04-15T07:12:27;13.67;65.83
70089;HTU21D;57460;47.134;19.888;2023-04-15T07:14:53;13.88;65.40
70089;HTU21D;57460;47.134;19.888;2023-04-15T07:17:19;13.96;64.99
70089;HTU21D;57460;47.134;19.888;2023-04-15T07:19:45;14.00;64.69
70089;HTU21D;57460;47.134;19.888;2023-04-15T07:22:11;13.96;64.43
70089;HTU21D;57460;47.134;19.888;2023-04-15T07:24:37;14.08;64.47
70089;HTU21D;57460;47.134;19.888;2023-04-15T07:27:03;14.11;64.09
70089;HTU21D;57460;47.134;19.888;2023-04-15T07:29:29;14.32;62.91
70089;HTU21D;57460;47.134;19.888;2023-04-15T07:31:54;14.27;64.11
70089;HTU21D;57460;47.134;19.888;2023-04-15T07:34:21;14.37;63.32
70089;HTU21D;57460;47.134;19.888;2023-04-15T07:36:47;14.37;61.38
70089;HTU21D;57460;47.134;19.888;2023-04-15T07:39:19;14.48;64.39
70089;HTU21D;57460;47.134;19.888;2023-04-15T07:41:45;14.66;62.68
70089;HTU21D;57460;47.134;19.888;2023-04-15T07:44:11;14.74;61.20
70089;HTU21D;57460;47.134;19.888;2023-04-15T07:46:37;14.87;58.31
70089;HTU21D;57460;47.134;19.888;2023-04-15T07:49:05;14.98;62.13
70089;HTU21D;57460;47.134;19.888;2023-04-15T07:51:31;15.13;60.17
70089;HTU21D;57460;47.134;19.888;2023-04-15T07:53:57;15.29;61.92
70089;HTU21D;57460;47.134;19.888;2023-04-15T07:56:23;15.42;62.09
70089;HTU21D;57460;47.134;19.888;2023-04-15T07:58:49;15.56;60.22
70089;HTU21D;57460;47.134;19.888;2023-04-15T08:01:15;15.61;57.80
70089;HTU21D;57460;47.134;19.888;2023-04-15T08:03:41;15.56;56.66
70089;HTU21D;57460;47.134;19.888;2023-04-15T08:06:07;15.36;60.10
70089;HTU21D;57460;47.134;19.888;2023-04-15T08:08:33;15.30;58.21
70089;HTU21D;57460;47.134;19.888;2023-04-15T08:11:00;15.22;59.04
70089;HTU21D;57460;47.134;19.888;2023-04-15T08:13:26;15.17;60.09
70089;HTU21D;57460;47.134;19.888;2023-04-15T08:16:21;15.12;57.73
70089;HTU21D;57460;47.134;19.888;2023-04-15T08:18:49;15.28;58.77
70089;HTU21D;57460;47.134;19.888;2023-04-15T08:21:16;15.26;57.40
70089;HTU21D;57460;47.134;19.888;2023-04-15T08:23:42;15.22;56.43
70089;HTU21D;57460;47.134;19.888;2023-04-15T08:26:08;15.19;57.35
70089;HTU21D;57460;47.134;19.888;2023-04-15T08:28:36;15.25;56.08
70089;HTU21D;57460;47.134;19.888;2023-04-15T08:31:02;15.40;55.14
70089;HTU21D;57460;47.134;19.888;2023-04-15T08:33:28;15.38;55.55
70089;HTU21D;57460;47.134;19.888;2023-04-15T08:35:54;15.41;57.53
70089;HTU21D;57460;47.134;19.888;2023-04-15T08:38:19;15.52;56.69
70089;HTU21D;57460;47.134;19.888;2023-04-15T08:40:45;15.68;56.55
70089;HTU21D;57460;47.134;19.888;2023-04-15T08:43:21;15.81;57.27
70089;HTU21D;57460;47.134;19.888;2023-04-15T08:45:51;15.86;55.79
70089;HTU21D;57460;47.134;19.888;2023-04-15T08:48:18;15.83;55.53
70089;HTU21D;57460;47.134;19.888;2023-04-15T08:50:45;15.75;56.13
70089;HTU21D;57460;47.134;19.888;2023-04-15T08:53:11;15.69;54.30
70089;HTU21D;57460;47.134;19.888;2023-04-15T08:55:45;15.60;51.22
70089;HTU21D;57460;47.134;19.888;2023-04-15T08:58:15;15.30;52.20
70089;HTU21D;57460;47.134;19.888;2023-04-15T09:00:42;15.31;53.78
70089;HTU21D;57460;47.134;19.888;2023-04-15T09:03:08;15.29;55.37
70089;HTU21D;57460;47.134;19.888;2023-04-15T09:05:35;15.25;56.63
70089;HTU21D;57460;47.134;19.888;2023-04-15T09:08:02;15.32;56.23
70089;HTU21D;57460;47.134;19.888;2023-04-15T09:10:29;15.41;55.31
70089;HTU21D;57460;47.134;19.888;2023-04-15T09:12:56;15.44;54.91
70089;HTU21D;57460;47.134;19.888;2023-04-15T09:15:24;15.27;53.59
70089;HTU21D;57460;47.134;19.888;2023-04-15T09:17:52;15.30;55.14
70089;HTU21D;57460;47.134;19.888;2023-04-15T09:20:18;15.43;56.03
70089;HTU21D;57460;47.134;19.888;2023-04-15T09:22:46;15.81;56.13
70089;HTU21D;57460;47.134;19.888;2023-04-15T09:27:56;16.19;53.75
70089;HTU21D;57460;47.134;19.888;2023-04-15T09:30:22;16.20;54.71
70089;HTU21D;57460;47.134;19.888;2023-04-15T09:32:55;16.04;53.06
70089;HTU21D;57460;47.134;19.888;2023-04-15T09:35:22;16.13;55.07
70089;HTU21D;57460;47.134;19.888;2023-04-15T09:37:49;16.20;53.78
70089;HTU21D;57460;47.134;19.888;2023-04-15T09:40:39;16.33;53.55
70089;HTU21D;57460;47.134;19.888;2023-04-15T09:43:07;16.35;51.38
70089;HTU21D;57460;47.134;19.888;2023-04-15T09:45:34;16.40;50.92
70089;HTU21D;57460;47.134;19.888;2023-04-15T09:48:22;16.34;49.50
70089;HTU21D;57460;47.134;19.888;2023-04-15T09:50:49;15.97;49.98
70089;HTU21D;57460;47.134;19.888;2023-04-15T09:53:18;15.92;49.11
70089;HTU21D;57460;47.134;19.888;2023-04-15T09:55:54;15.91;50.96
70089;HTU21D;57460;47.134;19.888;2023-04-15T09:58:22;15.73;49.86
70089;HTU21D;57460;47.134;19.888;2023-04-15T10:00:50;15.57;51.50
70089;HTU21D;57460;47.134;19.888;2023-04-15T10:03:30;15.37;51.27
70089;HTU21D;57460;47.134;19.888;2023-04-15T10:05:58;15.31;49.27
70089;HTU21D;57460;47.134;19.888;2023-04-15T10:08:27;15.19;50.81
70089;HTU21D;57460;47.134;19.888;2023-04-15T10:10:54;14.98;53.02
70089;HTU21D;57460;47.134;19.888;2023-04-15T10:13:23;14.81;52.73
70089;HTU21D;57460;47.134;19.888;2023-04-15T10:16:00;14.72;53.02
70089;HTU21D;57460;47.134;19.888;2023-04-15T10:18:28;14.70;54.10
70089;HTU21D;57460;47.134;19.888;2023-04-15T10:20:59;14.64;53.47
70089;HTU21D;57460;47.134;19.888;2023-04-15T10:23:26;14.64;54.91
70089;HTU21D;57460;47.134;19.888;2023-04-15T10:25:53;14.45;55.14
70089;HTU21D;57460;47.134;19.888;2023-04-15T10:28:20;14.67;56.20
70089;HTU21D;57460;47.134;19.888;2023-04-15T10:30:49;14.75;55.00
70089;HTU21D;57460;47.134;19.888;2023-04-15T10:33:19;14.86;53.99
70089;HTU21D;57460;47.134;19.888;2023-04-15T10:35:47;15.14;55.03
70089;HTU21D;57460;47.134;19.888;2023-04-15T10:38:34;15.22;54.05
70089;HTU21D;57460;47.134;19.888;2023-04-15T10:41:19;14.93;51.25
70089;HTU21D;57460;47.134;19.888;2023-04-15T10:44:05;14.88;55.71
70089;HTU21D;57460;47.134;19.888;2023-04-15T10:46:40;14.74;56.04
70089;HTU21D;57460;47.134;19.888;2023-04-15T10:49:32;14.75;56.93
70089;HTU21D;57460;47.134;19.888;2023-04-15T10:51:58;15.14;56.88
70089;HTU21D;57460;47.134;19.888;2023-04-15T10:54:31;15.49;52.54
70089;HTU21D;57460;47.134;19.888;2023-04-15T10:59:30;16.07;49.43
70089;HTU21D;57460;47.134;19.888;2023-04-15T11:02:00;16.29;49.46
70089;HTU21D;57460;47.134;19.888;2023-04-15T11:04:54;16.55;48.66
70089;HTU21D;57460;47.134;19.888;2023-04-15T11:07:33;16.74;47.92
70089;HTU21D;57460;47.134;19.888;2023-04-15T11:09:59;16.95;49.64
70089;HTU21D;57460;47.134;19.888;2023-04-15T11:12:35;16.74;50.63
70089;HTU21D;57460;47.134;19.888;2023-04-15T11:20:52;16.01;54.16
70089;HTU21D;57460;47.134;19.888;2023-04-15T11:23:31;15.88;54.71
70089;HTU21D;57460;47.134;19.888;2023-04-15T11:25:59;16.12;53.92
70089;HTU21D;57460;47.134;19.888;2023-04-15T11:28:30;16.05;55.17
70089;HTU21D;57460;47.134;19.888;2023-04-15T11:30:56;16.00;55.74
70089;HTU21D;57460;47.134;19.888;2023-04-15T11:33:24;15.87;55.37
70089;HTU21D;57460;47.134;19.888;2023-04-15T11:35:53;15.83;56.45
70089;HTU21D;57460;47.134;19.888;2023-04-15T11:38:19;15.51;56.25
70089;HTU21D;57460;47.134;19.888;2023-04-15T11:40:45;15.47;57.03
70089;HTU21D;57460;47.134;19.888;2023-04-15T11:43:16;15.53;56.49
70089;HTU21D;57460;47.134;19.888;2023-04-15T11:45:56;15.54;56.29
70089;HTU21D;57460;47.134;19.888;2023-04-15T11:48:27;15.75;55.54
70089;HTU21D;57460;47.134;19.888;2023-04-15T11:51:00;15.90;55.72
70089;HTU21D;57460;47.134;19.888;2023-04-15T11:53:47;15.88;55.46
70089;HTU21D;57460;47.134;19.888;2023-04-15T11:56:24;15.92;55.00
70089;HTU21D;57460;47.134;19.888;2023-04-15T11:58:56;15.92;55.07
70089;HTU21D;57460;47.134;19.888;2023-04-15T12:01:36;15.86;54.13
70089;HTU21D;57460;47.134;19.888;2023-04-15T12:04:11;15.74;54.39
70089;HTU21D;57460;47.134;19.888;2023-04-15T12:06:37;15.42;54.77
70089;HTU21D;57460;47.134;19.888;2023-04-15T12:11:55;15.36;55.72
70089;HTU21D;57460;47.134;19.888;2023-04-15T12:16:56;15.34;56.52
70089;HTU21D;57460;47.134;19.888;2023-04-15T12:21:51;15.29;55.54
70089;HTU21D;57460;47.134;19.888;2023-04-15T12:24:20;15.19;55.76
70089;HTU21D;57460;47.134;19.888;2023-04-15T12:26:54;15.31;54.90
70089;HTU21D;57460;47.134;19.888;2023-04-15T12:29:27;15.18;55.71
70089;HTU21D;57460;47.134;19.888;2023-04-15T12:32:03;15.17;56.31
70089;HTU21D;57460;47.134;19.888;2023-04-15T12:34:32;15.03;55.03
70089;HTU21D;57460;47.134;19.888;2023-04-15T12:37:01;15.12;55.87
70089;HTU21D;57460;47.134;19.888;2023-04-15T12:39:30;15.08;54.47
70089;HTU21D;57460;47.134;19.888;2023-04-15T12:41:57;15.00;54.94
70089;HTU21D;57460;47.134;19.888;2023-04-15T12:44:24;14.92;54.53
70089;HTU21D;57460;47.134;19.888;2023-04-15T12:46:51;14.93;55.57
70089;HTU21D;57460;47.134;19.888;2023-04-15T12:49:20;14.94;55.58
70089;HTU21D;57460;47.134;19.888;2023-04-15T12:51:52;15.04;55.30
70089;HTU21D;57460;47.134;19.888;2023-04-15T12:54:18;15.12;54.82
70089;HTU21D;57460;47.134;19.888;2023-04-15T12:56:45;14.89;54.56
70089;HTU21D;57460;47.134;19.888;2023-04-15T12:59:11;14.80;55.06
70089;HTU21D;57460;47.134;19.888;2023-04-15T13:01:37;15.07;54.30
70089;HTU21D;57460;47.134;19.888;2023-04-15T13:04:04;14.97;55.41
70089;HTU21D;57460;47.134;19.888;2023-04-15T13:06:29;15.24;54.47
70089;HTU21D;57460;47.134;19.888;2023-04-15T13:09:01;15.16;53.52
70089;HTU21D;57460;47.134;19.888;2023-04-15T13:11:29;15.17;54.37
70089;HTU21D;57460;47.134;19.888;2023-04-15T13:14:03;15.12;54.65
70089;HTU21D;57460;47.134;19.888;2023-04-15T13:16:29;15.27;53.94
70089;HTU21D;57460;47.134;19.888;2023-04-15T13:18:57;15.44;53.81
70089;HTU21D;57460;47.134;19.888;2023-04-15T13:21:23;15.53;53.49
70089;HTU21D;57460;47.134;19.888;2023-04-15T13:23:49;15.70;53.22
70089;HTU21D;57460;47.134;19.888;2023-04-15T13:26:18;15.66;53.04
70089;HTU21D;57460;47.134;19.888;2023-04-15T13:28:44;15.56;52.87
70089;HTU21D;57460;47.134;19.888;2023-04-15T13:31:10;15.60;53.52
70089;HTU21D;57460;47.134;19.888;2023-04-15T13:33:37;15.60;52.33
70089;HTU21D;57460;47.134;19.888;2023-04-15T13:36:03;15.69;53.79
70089;HTU21D;57460;47.134;19.888;2023-04-15T13:38:29;15.90;52.63
70089;HTU21D;57460;47.134;19.888;2023-04-15T13:40:54;16.00;51.89
70089;HTU21D;57460;47.134;19.888;2023-04-15T13:43:20;15.96;50.11
70089;HTU21D;57460;47.134;19.888;2023-04-15T13:45:46;15.77;52.03
70089;HTU21D;57460;47.134;19.888;2023-04-15T13:48:12;15.77;51.97
70089;HTU21D;57460;47.134;19.888;2023-04-15T13:50:38;15.86;52.36
70089;HTU21D;57460;47.134;19.888;2023-04-15T13:53:04;15.78;53.72
70089;HTU21D;57460;47.134;19.888;2023-04-15T13:55:30;15.90;53.70
70089;HTU21D;57460;47.134;19.888;2023-04-15T13:57:56;16.11;50.43
70089;HTU21D;57460;47.134;19.888;2023-04-15T14:00:22;16.10;51.53
70089;HTU21D;57460;47.134;19.888;2023-04-15T14:02:47;16.05;50.75
70089;HTU21D;57460;47.134;19.888;2023-04-15T14:05:16;15.87;48.83
70089;HTU21D;57460;47.134;19.888;2023-04-15T14:07:41;16.00;52.03
70089;HTU21D;57460;47.134;19.888;2023-04-15T14:10:08;16.05;52.63
70089;HTU21D;57460;47.134;19.888;2023-04-15T14:12:33;16.32;51.66
70089;HTU21D;57460;47.134;19.888;2023-04-15T14:14:59;16.35;52.00
70089;HTU21D;57460;47.134;19.888;2023-04-15T14:17:26;16.41;51.18
70089;HTU21D;57460;47.134;19.888;2023-04-15T14:19:52;16.33;51.21
70089;HTU21D;57460;47.134;19.888;2023-04-15T14:22:18;16.30;51.08
70089;HTU21D;57460;47.134;19.888;2023-04-15T14:24:44;16.39;49.95
70089;HTU21D;57460;47.134;19.888;2023-04-15T14:27:10;16.45;51.30
70089;HTU21D;57460;47.134;19.888;2023-04-15T14:29:37;16.43;50.59
70089;HTU21D;57460;47.134;19.888;2023-04-15T14:32:03;16.28;52.02
70089;HTU21D;57460;47.134;19.888;2023-04-15T14:34:29;16.10;51.50
70089;HTU21D;57460;47.134;19.888;2023-04-15T14:36:55;15.95;51.99
70089;HTU21D;57460;47.134;19.888;2023-04-15T14:39:21;15.88;52.15
70089;HTU21D;57460;47.134;19.888;2023-04-15T14:41:46;15.96;51.45
70089;HTU21D;57460;47.134;19.888;2023-04-15T14:44:12;15.82;51.50
70089;HTU21D;57460;47.134;19.888;2023-04-15T14:46:38;15.71;52.67
70089;HTU21D;57460;47.134;19.888;2023-04-15T14:49:05;15.75;53.29
70089;HTU21D;57460;47.134;19.888;2023-04-15T14:51:31;15.89;52.46
70089;HTU21D;57460;47.134;19.888;2023-04-15T14:53:57;15.98;52.28
70089;HTU21D;57460;47.134;19.888;2023-04-15T14:56:23;15.97;52.43
70089;HTU21D;57460;47.134;19.888;2023-04-15T14:58:49;16.17;52.49
70089;HTU21D;57460;47.134;19.888;2023-04-15T15:01:18;16.19;51.33
70089;HTU21D;57460;47.134;19.888;2023-04-15T15:03:44;16.18;51.53
70089;HTU21D;57460;47.134;19.888;2023-04-15T15:06:10;16.12;52.35
70089;HTU21D;57460;47.134;19.888;2023-04-15T15:08:36;16.16;51.57
70089;HTU21D;57460;47.134;19.888;2023-04-15T15:11:03;16.02;50.55
70089;HTU21D;57460;47.134;19.888;2023-04-15T15:13:29;16.02;51.78
70089;HTU21D;57460;47.134;19.888;2023-04-15T15:15:56;16.01;51.58
70089;HTU21D;57460;47.134;19.888;2023-04-15T15:18:21;16.08;51.58
70089;HTU21D;57460;47.134;19.888;2023-04-15T15:20:49;16.07;51.22
70089;HTU21D;57460;47.134;19.888;2023-04-15T15:23:15;16.13;51.04
70089;HTU21D;57460;47.134;19.888;2023-04-15T15:25:42;16.16;50.11
70089;HTU21D;57460;47.134;19.888;2023-04-15T15:28:08;15.91;49.93